createdAt,value
2023-05-25T00:00:31.439Z,10.23
2023-05-25T00:02:59.509Z,13.63
2023-05-25T00:05:27.666Z,14.30
2023-05-25T00:07:55.429Z,14.47
2023-05-25T00:10:24.084Z,12.23
2023-05-25T00:12:51.786Z,10.67
2023-05-25T00:15:18.948Z,12.77
2023-05-25T00:17:49.032Z,12.73
2023-05-25T00:20:16.369Z,12.00
2023-05-25T00:22:47.524Z,12.30
2023-05-25T00:25:14.424Z,13.10
2023-05-25T00:27:41.255Z,13.67
2023-05-25T00:30:09.013Z,11.67
2023-05-25T00:32:36.077Z,14.00
2023-05-25T00:35:03.081Z,15.50
2023-05-25T00:37:29.978Z,16.50
2023-05-25T00:39:56.879Z,10.00
2023-05-25T00:42:24.656Z,10.17
2023-05-25T00:44:51.597Z,11.93
2023-05-25T00:47:18.581Z,15.27
2023-05-25T00:49:45.823Z,12.13
2023-05-25T00:52:14.791Z,13.73
2023-05-25T00:54:41.683Z,13.07
2023-05-25T00:57:10.435Z,9.93
2023-05-25T00:59:51.584Z,13.20
2023-05-25T01:02:20.247Z,14.27
2023-05-25T01:05:00.523Z,14.33
2023-05-25T01:07:28.625Z,13.00
2023-05-25T01:10:05.547Z,14.33
2023-05-25T01:12:39.019Z,17.87
2023-05-25T01:15:07.116Z,23.93
2023-05-25T01:17:38.060Z,23.20
2023-05-25T01:20:11.392Z,24.03
2023-05-25T01:22:55.558Z,31.13
2023-05-25T01:25:34.468Z,19.23
2023-05-25T01:28:17.058Z,30.63
2023-05-25T01:30:49.578Z,19.17
2023-05-25T01:33:19.091Z,28.50
2023-05-25T01:35:47.924Z,35.70
2023-05-25T01:38:15.292Z,23.30
2023-05-25T01:40:42.193Z,26.30
2023-05-25T01:43:09.115Z,22.87
2023-05-25T01:45:37.049Z,27.40
2023-05-25T01:48:26.282Z,35.07
2023-05-25T01:51:04.881Z,27.33
2023-05-25T01:53:38.928Z,50.63
2023-05-25T01:56:09.480Z,22.87
2023-05-25T01:58:42.426Z,31.83
2023-05-25T02:01:12.415Z,35.33
2023-05-25T02:03:41.707Z,28.83
2023-05-25T02:06:09.003Z,28.93
2023-05-25T02:08:36.011Z,18.90
2023-05-25T02:11:03.550Z,20.27
2023-05-25T02:13:30.797Z,19.80
2023-05-25T02:15:57.809Z,34.47
2023-05-25T02:18:24.813Z,21.40
2023-05-25T02:20:51.800Z,10.40
2023-05-25T02:23:19.090Z,15.60
2023-05-25T02:25:46.551Z,18.37
2023-05-25T02:28:15.049Z,20.40
2023-05-25T02:30:41.959Z,29.10
2023-05-25T02:33:08.991Z,24.57
2023-05-25T02:35:35.859Z,25.10
2023-05-25T02:38:02.786Z,21.53
2023-05-25T02:40:29.847Z,13.10
2023-05-25T02:42:56.901Z,37.07
2023-05-25T02:45:23.791Z,16.73
2023-05-25T02:47:50.846Z,46.80
2023-05-25T02:50:17.974Z,34.53
2023-05-25T02:52:44.887Z,39.97
2023-05-25T02:55:13.630Z,57.83
2023-05-25T02:57:41.053Z,44.17
2023-05-25T03:00:08.591Z,60.10
2023-05-25T03:02:35.510Z,35.37
2023-05-25T03:05:04.313Z,44.33
2023-05-25T03:07:31.711Z,29.37
2023-05-25T03:09:59.524Z,33.50
2023-05-25T03:12:26.651Z,31.17
2023-05-25T03:14:53.542Z,22.70
2023-05-25T03:17:20.643Z,38.27
2023-05-25T03:19:47.639Z,23.73
2023-05-25T03:22:14.518Z,32.17
2023-05-25T03:24:41.708Z,21.37
2023-05-25T03:27:09.078Z,24.40
2023-05-25T03:29:36.021Z,21.63
2023-05-25T03:32:03.157Z,24.53
2023-05-25T03:34:30.264Z,29.10
2023-05-25T03:36:57.249Z,33.40
2023-05-25T03:39:24.198Z,46.57
2023-05-25T03:41:51.432Z,32.27
2023-05-25T03:44:18.476Z,25.50
2023-05-25T03:46:45.455Z,21.67
2023-05-25T03:49:14.076Z,31.67
2023-05-25T03:51:41.839Z,18.30
2023-05-25T03:54:09.046Z,37.13
2023-05-25T03:56:36.270Z,41.77
2023-05-25T03:59:03.299Z,27.50
2023-05-25T04:01:30.459Z,22.97
2023-05-25T04:03:57.659Z,23.33
2023-05-25T04:06:29.954Z,29.90
2023-05-25T04:08:58.006Z,30.80
2023-05-25T04:11:25.682Z,45.17
2023-05-25T04:13:52.643Z,19.07
2023-05-25T04:16:19.663Z,45.10
2023-05-25T04:18:46.589Z,36.57
2023-05-25T04:21:13.657Z,35.00
2023-05-25T04:23:41.062Z,28.60
2023-05-25T04:26:10.268Z,29.97
2023-05-25T04:28:39.029Z,55.33
2023-05-25T04:31:05.948Z,22.97
2023-05-25T04:33:34.440Z,43.03
2023-05-25T04:36:01.410Z,36.83
2023-05-25T04:38:30.822Z,46.70
2023-05-25T04:40:58.167Z,43.97
2023-05-25T04:43:29.884Z,39.57
2023-05-25T04:45:57.987Z,50.27
2023-05-25T04:48:25.113Z,31.43
2023-05-25T04:50:53.061Z,36.83
2023-05-25T04:53:20.678Z,92.27
2023-05-25T04:55:47.600Z,56.53
2023-05-25T04:58:15.177Z,45.80
2023-05-25T05:00:42.335Z,50.13
2023-05-25T05:03:10.003Z,34.93
2023-05-25T05:05:37.099Z,45.93
2023-05-25T05:08:04.377Z,44.70
2023-05-25T05:10:31.688Z,33.37
2023-05-25T05:12:58.539Z,47.80
2023-05-25T05:15:26.232Z,50.00
2023-05-25T05:17:54.433Z,52.97
2023-05-25T05:20:21.615Z,30.63
2023-05-25T05:22:49.100Z,29.90
2023-05-25T05:25:16.074Z,33.17
2023-05-25T05:27:43.001Z,26.40
2023-05-25T05:30:10.233Z,24.65
2023-05-25T05:32:37.102Z,20.77
2023-05-25T05:35:04.256Z,20.15
2023-05-25T05:37:31.201Z,19.67
2023-05-25T05:39:58.160Z,21.85
2023-05-25T05:42:25.216Z,18.13
2023-05-25T05:44:52.167Z,16.25
2023-05-25T05:47:19.027Z,15.00
2023-05-25T05:49:47.364Z,18.05
2023-05-25T05:52:14.408Z,19.08
2023-05-25T05:54:41.354Z,17.30
2023-05-25T05:57:08.316Z,14.45
2023-05-25T05:59:35.418Z,14.20
2023-05-25T06:02:02.464Z,15.85
2023-05-25T06:04:29.417Z,14.60
2023-05-25T06:06:56.299Z,15.45
2023-05-25T06:09:23.182Z,17.05
2023-05-25T06:11:50.195Z,15.02
2023-05-25T06:14:17.143Z,17.75
2023-05-25T06:16:44.283Z,16.38
2023-05-25T06:19:11.726Z,18.27
2023-05-25T06:21:38.643Z,14.57
2023-05-25T06:24:06.393Z,18.92
2023-05-25T06:26:33.306Z,16.73
2023-05-25T06:29:00.250Z,15.00
2023-05-25T06:31:27.250Z,21.38
2023-05-25T06:33:54.156Z,22.38
2023-05-25T06:36:21.874Z,16.70
2023-05-25T06:38:48.835Z,18.98
2023-05-25T06:41:15.871Z,20.15
2023-05-25T06:43:42.757Z,15.57
2023-05-25T06:46:10.522Z,20.90
2023-05-25T06:48:39.631Z,13.43
2023-05-25T06:51:06.706Z,15.13
2023-05-25T06:53:33.605Z,17.13
2023-05-25T06:56:00.853Z,19.40
2023-05-25T06:58:27.739Z,18.27
2023-05-25T07:00:54.595Z,17.10
2023-05-25T07:03:22.003Z,12.95
2023-05-25T07:05:49.373Z,14.40
2023-05-25T07:08:16.419Z,14.20
2023-05-25T07:10:43.357Z,13.52
2023-05-25T07:13:11.378Z,13.40
2023-05-25T07:15:38.459Z,15.20
2023-05-25T07:18:05.549Z,14.75
2023-05-25T07:20:34.453Z,12.05
2023-05-25T07:23:01.458Z,16.40
2023-05-25T07:25:28.472Z,12.07
2023-05-25T07:27:55.678Z,14.05
2023-05-25T07:30:22.656Z,10.00
2023-05-25T07:32:49.657Z,15.43
2023-05-25T07:35:16.684Z,11.02
2023-05-25T07:37:43.659Z,12.10
2023-05-25T07:40:11.301Z,12.10
2023-05-25T07:42:38.247Z,12.90
2023-05-25T07:45:05.914Z,11.93
2023-05-25T07:47:32.867Z,14.23
2023-05-25T07:49:59.785Z,11.45
2023-05-25T07:52:26.782Z,10.23
2023-05-25T07:54:53.738Z,11.40
2023-05-25T07:57:20.849Z,13.77
2023-05-25T07:59:47.790Z,10.40
2023-05-25T08:02:14.815Z,12.00
2023-05-25T08:04:41.962Z,9.70
2023-05-25T08:07:09.127Z,11.95
2023-05-25T08:09:36.012Z,13.00
2023-05-25T08:12:18.735Z,15.18
2023-05-25T08:14:50.903Z,13.02
2023-05-25T08:17:17.848Z,10.88
2023-05-25T08:19:44.820Z,12.82
2023-05-25T08:22:11.779Z,9.70
2023-05-25T08:24:38.706Z,11.35
2023-05-25T08:27:05.925Z,10.02
2023-05-25T08:29:32.883Z,10.35
2023-05-25T08:31:59.841Z,7.88
2023-05-25T08:34:26.922Z,11.50
2023-05-25T08:36:54.030Z,9.15
2023-05-25T08:39:20.972Z,8.60
2023-05-25T08:41:50.355Z,9.52
2023-05-25T08:44:17.787Z,9.85
2023-05-25T08:46:50.264Z,7.65
2023-05-25T08:49:17.636Z,11.45
2023-05-25T08:51:55.485Z,5.85
2023-05-25T08:54:32.865Z,7.45
2023-05-25T08:57:11.200Z,7.90
2023-05-25T09:00:15.717Z,8.85
2023-05-25T09:03:08.533Z,7.15
2023-05-25T09:05:37.933Z,5.97
2023-05-25T09:08:06.867Z,8.05
2023-05-25T09:10:35.843Z,7.35
2023-05-25T09:13:19.098Z,5.47
2023-05-25T09:15:49.194Z,7.85
2023-05-25T09:18:16.226Z,6.65
2023-05-25T09:20:46.095Z,6.53
2023-05-25T09:23:15.276Z,6.30
2023-05-25T09:25:42.737Z,8.82
2023-05-25T09:28:25.609Z,5.72
2023-05-25T09:30:54.821Z,6.90
2023-05-25T09:33:21.941Z,7.72
2023-05-25T09:35:49.295Z,7.95
2023-05-25T09:38:17.154Z,9.32
2023-05-25T09:40:45.443Z,7.90
2023-05-25T09:43:21.864Z,7.00
2023-05-25T09:45:55.854Z,6.00
2023-05-25T09:48:24.283Z,4.90
2023-05-25T09:50:52.108Z,6.00
2023-05-25T09:53:19.186Z,5.68
2023-05-25T09:55:52.998Z,7.63
2023-05-25T09:58:25.082Z,7.50
2023-05-25T10:00:55.723Z,7.90
2023-05-25T10:03:23.153Z,9.15
2023-05-25T10:05:51.886Z,6.72
2023-05-25T10:08:21.903Z,8.63
2023-05-25T10:10:50.258Z,10.10
2023-05-25T10:13:25.547Z,7.05
2023-05-25T10:15:56.718Z,7.40
2023-05-25T10:18:28.789Z,7.60
2023-05-25T10:21:04.755Z,8.60
2023-05-25T10:23:42.862Z,6.85
2023-05-25T10:26:16.290Z,7.97
2023-05-25T10:28:46.081Z,8.45
2023-05-25T10:31:15.691Z,10.07
2023-05-25T10:33:47.507Z,8.15
2023-05-25T10:36:20.330Z,6.63
2023-05-25T10:38:50.869Z,10.07
2023-05-25T10:41:20.446Z,8.95
2023-05-25T10:43:48.620Z,9.75
2023-05-25T10:46:17.248Z,8.57
2023-05-25T10:48:50.224Z,13.25
2023-05-25T10:51:21.007Z,8.65
2023-05-25T10:54:01.284Z,10.40
2023-05-25T10:56:28.247Z,8.40
2023-05-25T10:58:55.317Z,8.27
2023-05-25T11:01:22.790Z,8.60
2023-05-25T11:04:15.942Z,10.52
2023-05-25T11:06:48.917Z,11.80
2023-05-25T11:09:31.808Z,8.27
2023-05-25T11:12:02.371Z,10.52
2023-05-25T11:14:37.174Z,10.15
2023-05-25T11:17:15.293Z,12.80
2023-05-25T11:19:53.436Z,9.00
2023-05-25T11:22:35.379Z,11.57
2023-05-25T11:25:37.011Z,11.20
2023-05-25T11:28:06.985Z,9.73
2023-05-25T11:30:34.206Z,10.80
2023-05-25T11:33:04.693Z,10.10
2023-05-25T11:35:33.815Z,12.88
2023-05-25T11:38:01.292Z,12.90
2023-05-25T11:40:31.394Z,12.10
2023-05-25T11:43:00.818Z,11.65
2023-05-25T11:45:33.943Z,12.43
2023-05-25T11:48:01.230Z,13.57
2023-05-25T11:50:28.418Z,11.70
2023-05-25T11:52:55.710Z,12.50
2023-05-25T11:55:22.796Z,12.45
2023-05-25T11:57:57.168Z,15.18
2023-05-25T12:00:28.598Z,15.90
2023-05-25T12:02:56.533Z,13.25
2023-05-25T12:05:24.494Z,13.95
2023-05-25T12:07:52.181Z,12.95
2023-05-25T12:10:19.162Z,14.90
2023-05-25T12:12:49.251Z,11.75
2023-05-25T12:15:22.666Z,12.82
2023-05-25T12:17:50.989Z,15.88
2023-05-25T12:20:18.999Z,14.82
2023-05-25T12:22:47.380Z,11.77
2023-05-25T12:25:19.227Z,14.07
2023-05-25T12:27:46.306Z,14.18
2023-05-25T12:30:13.502Z,11.93
2023-05-25T12:33:03.752Z,11.23
2023-05-25T12:35:45.610Z,9.40
2023-05-25T12:38:22.197Z,12.60
2023-05-25T12:41:08.165Z,13.20
2023-05-25T12:43:39.988Z,13.18
2023-05-25T12:46:07.061Z,11.07
2023-05-25T12:48:34.512Z,12.85
2023-05-25T12:51:02.094Z,14.70
2023-05-25T12:53:32.228Z,10.55
2023-05-25T12:56:06.478Z,12.50
2023-05-25T12:58:33.450Z,11.95
2023-05-25T13:01:00.441Z,11.73
2023-05-25T13:03:27.763Z,11.52
2023-05-25T13:06:03.635Z,12.60
2023-05-25T13:08:30.690Z,11.82
2023-05-25T13:10:57.826Z,10.90
2023-05-25T13:13:24.721Z,8.82
2023-05-25T13:15:51.785Z,12.15
2023-05-25T13:18:18.740Z,13.35
2023-05-25T13:20:49.780Z,11.43
2023-05-25T13:23:18.276Z,11.95
2023-05-25T13:25:46.182Z,12.70
2023-05-25T13:28:13.108Z,12.30
2023-05-25T13:30:39.972Z,13.82
2023-05-25T13:33:07.006Z,12.00
2023-05-25T13:35:58.266Z,13.02
2023-05-25T13:38:25.670Z,14.07
2023-05-25T13:40:52.711Z,12.32
2023-05-25T13:43:19.744Z,9.85
2023-05-25T13:45:46.851Z,13.10
2023-05-25T13:48:13.958Z,12.30
2023-05-25T13:50:41.031Z,10.63
2023-05-25T13:53:08.001Z,12.13
2023-05-25T13:55:36.098Z,12.13
2023-05-25T13:58:05.090Z,10.60
2023-05-25T14:00:32.240Z,12.00
2023-05-25T14:02:59.415Z,13.73
2023-05-25T14:05:26.553Z,11.55
2023-05-25T14:07:55.679Z,13.02
2023-05-25T14:10:23.382Z,10.48
2023-05-25T14:12:50.340Z,9.07
2023-05-25T14:15:17.352Z,10.75
2023-05-25T14:17:44.394Z,10.02
2023-05-25T14:20:15.845Z,10.95
2023-05-25T14:22:42.887Z,10.73
2023-05-25T14:25:09.904Z,8.77
2023-05-25T14:27:36.792Z,10.93
2023-05-25T14:30:04.205Z,13.30
2023-05-25T14:32:31.198Z,8.32
2023-05-25T14:34:58.065Z,49.20
2023-05-25T14:37:24.911Z,13.13
2023-05-25T14:39:51.851Z,19.52
2023-05-25T14:42:18.885Z,11.82
2023-05-25T14:44:45.840Z,9.32
2023-05-25T14:47:12.851Z,9.45
2023-05-25T14:49:39.805Z,11.38
2023-05-25T14:52:06.725Z,11.85
2023-05-25T14:54:33.624Z,12.45
2023-05-25T14:57:01.787Z,11.10
2023-05-25T14:59:28.729Z,14.02
2023-05-25T15:01:55.796Z,10.82
2023-05-25T15:04:22.850Z,10.40
2023-05-25T15:06:49.879Z,9.77
2023-05-25T15:09:19.197Z,10.68
2023-05-25T15:11:46.105Z,8.90
2023-05-25T15:14:12.995Z,9.40
2023-05-25T15:16:40.067Z,10.15
2023-05-25T15:19:10.699Z,8.50
2023-05-25T15:21:38.881Z,11.93
2023-05-25T15:24:06.340Z,11.38
2023-05-25T15:26:33.275Z,8.65
2023-05-25T15:29:00.336Z,9.35
2023-05-25T15:31:27.260Z,9.60
2023-05-25T15:33:58.643Z,8.80
2023-05-25T15:36:26.211Z,13.23
2023-05-25T15:38:53.207Z,9.57
2023-05-25T15:41:20.990Z,11.85
2023-05-25T15:43:57.974Z,11.27
2023-05-25T15:46:25.950Z,10.32
2023-05-25T15:48:53.898Z,9.82
2023-05-25T15:51:21.259Z,12.63
2023-05-25T15:53:48.343Z,12.35
2023-05-25T15:56:15.286Z,11.90
2023-05-25T15:58:42.319Z,12.10
2023-05-25T16:01:12.512Z,12.07
2023-05-25T16:03:42.971Z,11.73
2023-05-25T16:06:10.301Z,10.60
2023-05-25T16:08:37.349Z,9.55
2023-05-25T16:11:04.600Z,11.38
2023-05-25T16:13:31.477Z,14.13
2023-05-25T16:15:58.358Z,11.02
2023-05-25T16:18:25.370Z,11.65
2023-05-25T16:20:56.226Z,10.65
2023-05-25T16:23:24.412Z,14.80
2023-05-25T16:25:51.421Z,13.13
2023-05-25T16:28:18.403Z,12.82
2023-05-25T16:30:45.713Z,12.93
2023-05-25T16:33:12.660Z,10.68
2023-05-25T16:35:40.182Z,13.02
2023-05-25T16:38:07.137Z,12.90
2023-05-25T16:40:34.411Z,13.30
2023-05-25T16:43:01.420Z,10.35
2023-05-25T16:45:28.479Z,9.52
2023-05-25T16:47:55.436Z,10.43
2023-05-25T16:50:23.806Z,10.10
2023-05-25T16:52:50.675Z,16.70
2023-05-25T16:55:17.606Z,12.00
2023-05-25T16:57:44.475Z,11.05
2023-05-25T17:00:12.210Z,11.18
2023-05-25T17:02:39.210Z,12.93
2023-05-25T17:05:06.981Z,12.70
2023-05-25T17:07:34.833Z,12.85
2023-05-25T17:10:02.202Z,12.52
2023-05-25T17:12:29.104Z,13.48
2023-05-25T17:14:56.346Z,11.60
2023-05-25T17:17:23.371Z,15.38
2023-05-25T17:19:50.678Z,11.32
2023-05-25T17:22:17.586Z,14.43
2023-05-25T17:24:44.509Z,12.95
2023-05-25T17:27:11.694Z,14.75
2023-05-25T17:29:38.554Z,13.25
2023-05-25T17:32:06.150Z,13.57
2023-05-25T17:34:33.423Z,13.63
2023-05-25T17:37:00.421Z,15.23
2023-05-25T17:39:27.342Z,16.20
2023-05-25T17:41:54.313Z,16.40
2023-05-25T17:44:21.226Z,13.65
2023-05-25T17:46:48.275Z,14.18
2023-05-25T17:49:15.146Z,14.40
2023-05-25T17:51:42.081Z,15.25
2023-05-25T17:54:09.105Z,15.65
2023-05-25T17:56:36.153Z,15.68
2023-05-25T17:59:03.565Z,19.58
2023-05-25T18:01:30.631Z,14.73
2023-05-25T18:03:57.698Z,14.75
2023-05-25T18:06:25.780Z,14.02
2023-05-25T18:08:54.192Z,14.07
2023-05-25T18:11:21.355Z,17.75
2023-05-25T18:13:48.229Z,16.75
2023-05-25T18:16:15.375Z,14.20
2023-05-25T18:18:44.878Z,16.55
2023-05-25T18:21:11.876Z,13.90
2023-05-25T18:23:38.738Z,16.85
2023-05-25T18:26:06.307Z,16.05
2023-05-25T18:28:33.347Z,14.25
2023-05-25T18:31:00.322Z,14.80
2023-05-25T18:33:27.276Z,15.32
2023-05-25T18:35:54.212Z,14.15
2023-05-25T18:38:21.108Z,18.73
2023-05-25T18:40:48.001Z,14.40
2023-05-25T18:43:15.543Z,16.98
2023-05-25T18:45:42.791Z,14.80
2023-05-25T18:48:10.276Z,15.63
2023-05-25T18:50:39.070Z,15.63
2023-05-25T18:53:07.699Z,18.45
2023-05-25T18:55:34.666Z,14.18
2023-05-25T18:58:01.588Z,17.00
2023-05-25T19:00:28.518Z,14.40
2023-05-25T19:02:57.214Z,14.88
2023-05-25T19:05:25.741Z,12.63
2023-05-25T19:07:58.974Z,14.95
2023-05-25T19:10:27.565Z,14.75
2023-05-25T19:12:54.807Z,17.13
2023-05-25T19:15:21.814Z,18.52
2023-05-25T19:17:48.768Z,17.10
2023-05-25T19:20:16.035Z,22.92
2023-05-25T19:22:43.426Z,17.42
2023-05-25T19:25:10.559Z,17.20
2023-05-25T19:27:37.461Z,16.17
2023-05-25T19:30:04.898Z,15.90
2023-05-25T19:32:32.000Z,16.27
2023-05-25T19:34:58.884Z,16.90
2023-05-25T19:37:26.784Z,13.63
2023-05-25T19:39:53.740Z,16.58
2023-05-25T19:42:20.691Z,15.18
2023-05-25T19:44:47.674Z,16.45
2023-05-25T19:47:14.857Z,16.55
2023-05-25T19:49:41.858Z,13.20
2023-05-25T19:52:08.820Z,13.90
2023-05-25T19:54:35.887Z,16.40
2023-05-25T19:57:03.010Z,16.27
2023-05-25T19:59:31.169Z,14.70
2023-05-25T20:01:58.588Z,14.43
2023-05-25T20:04:25.759Z,16.77
2023-05-25T20:06:53.490Z,17.27
2023-05-25T20:09:24.535Z,13.63
2023-05-25T20:11:51.404Z,12.45
2023-05-25T20:14:20.109Z,15.00
2023-05-25T20:16:47.567Z,15.48
2023-05-25T20:19:14.584Z,14.35
2023-05-25T20:21:41.514Z,15.02
2023-05-25T20:24:08.504Z,13.15
2023-05-25T20:26:35.735Z,15.23
2023-05-25T20:29:02.629Z,15.57
2023-05-25T20:31:29.591Z,13.23
2023-05-25T20:33:56.545Z,14.32
2023-05-25T20:36:23.403Z,13.13
2023-05-25T20:38:50.365Z,17.20
2023-05-25T20:41:17.305Z,13.02
2023-05-25T20:43:44.568Z,14.27
2023-05-25T20:46:12.034Z,13.30
2023-05-25T20:48:40.477Z,13.43
2023-05-25T20:51:07.409Z,11.02
2023-05-25T20:53:34.294Z,15.05
2023-05-25T20:56:02.254Z,12.73
2023-05-25T20:58:29.220Z,14.30
2023-05-25T21:00:56.346Z,14.80
2023-05-25T21:03:23.368Z,15.93
2023-05-25T21:05:50.459Z,13.77
2023-05-25T21:08:17.420Z,13.43
2023-05-25T21:10:44.335Z,14.77
2023-05-25T21:13:11.568Z,13.55
2023-05-25T21:15:38.480Z,12.93
2023-05-25T21:18:07.053Z,13.75
2023-05-25T21:20:34.149Z,12.98
2023-05-25T21:23:02.577Z,12.20
2023-05-25T21:25:30.160Z,11.80
2023-05-25T21:27:57.378Z,15.15
2023-05-25T21:30:24.502Z,12.50
2023-05-25T21:32:51.649Z,17.25
2023-05-25T21:35:18.737Z,12.70
2023-05-25T21:37:46.182Z,14.02
2023-05-25T21:40:13.245Z,14.10
2023-05-25T21:42:40.191Z,14.63
2023-05-25T21:45:07.774Z,13.20
2023-05-25T21:47:34.722Z,16.65
2023-05-25T21:50:01.753Z,16.10
2023-05-25T21:52:28.671Z,13.50
2023-05-25T21:54:55.582Z,11.93
2023-05-25T21:57:22.526Z,15.85
2023-05-25T21:59:49.513Z,13.93
2023-05-25T22:02:16.572Z,14.15
2023-05-25T22:04:43.483Z,19.48
2023-05-25T22:07:10.441Z,15.18
2023-05-25T22:09:37.445Z,14.35
2023-05-25T22:12:04.768Z,18.88
2023-05-25T22:14:31.709Z,13.48
2023-05-25T22:16:58.652Z,18.35
2023-05-25T22:19:25.628Z,13.43
2023-05-25T22:21:53.455Z,12.75
2023-05-25T22:24:20.564Z,16.70
2023-05-25T22:26:47.459Z,13.98
2023-05-25T22:29:14.410Z,17.73
2023-05-25T22:31:41.494Z,14.27
2023-05-25T22:34:08.407Z,15.10
2023-05-25T22:36:36.750Z,14.27
2023-05-25T22:39:03.945Z,13.65
2023-05-25T22:41:30.901Z,13.57
2023-05-25T22:43:57.818Z,11.23
2023-05-25T22:46:24.775Z,14.15
2023-05-25T22:48:51.779Z,16.05
2023-05-25T22:51:18.723Z,15.98
2023-05-25T22:53:45.899Z,14.75
2023-05-25T22:56:12.825Z,12.43
2023-05-25T22:58:39.870Z,13.05
2023-05-25T23:01:06.857Z,15.77
2023-05-25T23:03:33.948Z,13.52
2023-05-25T23:06:00.913Z,16.15
2023-05-25T23:08:27.957Z,15.20
2023-05-25T23:10:54.871Z,18.00
2023-05-25T23:13:24.221Z,14.93
2023-05-25T23:15:51.288Z,15.07
2023-05-25T23:18:18.302Z,11.88
2023-05-25T23:20:45.309Z,11.70
2023-05-25T23:23:12.764Z,12.88
2023-05-25T23:25:39.942Z,13.27
2023-05-25T23:28:06.812Z,12.38
2023-05-25T23:30:33.727Z,15.15
2023-05-25T23:33:00.965Z,13.38
2023-05-25T23:35:28.661Z,12.32
2023-05-25T23:37:57.636Z,15.23
2023-05-25T23:40:24.681Z,14.02
2023-05-25T23:42:52.150Z,13.07
2023-05-25T23:45:19.289Z,13.77
2023-05-25T23:47:46.605Z,12.85
2023-05-25T23:50:13.591Z,12.27
2023-05-25T23:52:41.504Z,13.67
2023-05-25T23:55:08.853Z,11.30
2023-05-25T23:57:36.618Z,14.60
